sensor_id;sensor_type;location;lat;lon;timestamp;pressure;altitude;pressure_sealevel;temperature;humidity
80509;BME280;69838;52.602;13.434;2023-08-24T00:00:11;101382.38;;;13.58;99.80
80509;BME280;69838;52.602;13.434;2023-08-24T00:00:56;101387.00;;;13.55;99.57
80509;BME280;69838;52.602;13.434;2023-08-24T00:01:42;101383.44;;;13.55;99.62
80509;BME280;69838;52.602;13.434;2023-08-24T00:02:27;101375.19;;;13.56;99.63
80509;BME280;69838;52.602;13.434;2023-08-24T00:03:13;101376.09;;;13.57;99.71
80509;BME280;69838;52.602;13.434;2023-08-24T00:03:59;101374.97;;;13.61;99.02
80509;BME280;69838;52.602;13.434;2023-08-24T00:04:44;101369.69;;;13.58;99.26
80509;BME280;69838;52.602;13.434;2023-08-24T00:05:33;101377.91;;;13.56;99.45
80509;BME280;69838;52.602;13.434;2023-08-24T00:06:18;101373.59;;;13.52;99.52
80509;BME280;69838;52.602;13.434;2023-08-24T00:07:04;101379.16;;;13.49;99.61
80509;BME280;69838;52.602;13.434;2023-08-24T00:07:50;101376.25;;;13.54;99.89
80509;BME280;69838;52.602;13.434;2023-08-24T00:08:36;101377.44;;;13.48;99.76
80509;BME280;69838;52.602;13.434;2023-08-24T00:09:22;101379.09;;;13.51;99.87
80509;BME280;69838;52.602;13.434;2023-08-24T00:10:08;101374.66;;;13.50;99.69
80509;BME280;69838;52.602;13.434;2023-08-24T00:10:54;101373.59;;;13.52;99.68
80509;BME280;69838;52.602;13.434;2023-08-24T00:11:39;101373.59;;;13.52;99.59
80509;BME280;69838;52.602;13.434;2023-08-24T00:12:27;101377.44;;;13.48;99.69
80509;BME280;69838;52.602;13.434;2023-08-24T00:13:12;101383.97;;;13.44;99.72
80509;BME280;69838;52.602;13.434;2023-08-24T00:13:58;101379.34;;;13.46;99.88
80509;BME280;69838;52.602;13.434;2023-08-24T00:14:44;101377.66;;;13.44;99.54
80509;BME280;69838;52.602;13.434;2023-08-24T00:15:30;101379.50;;;13.43;99.99
80509;BME280;69838;52.602;13.434;2023-08-24T00:16:15;101373.50;;;13.36;99.53
80509;BME280;69838;52.602;13.434;2023-08-24T00:17:02;101378.19;;;13.33;99.93
80509;BME280;69838;52.602;13.434;2023-08-24T00:17:47;101364.56;;;13.34;100.00
80509;BME280;69838;52.602;13.434;2023-08-24T00:18:33;101362.06;;;13.30;100.00
80509;BME280;69838;52.602;13.434;2023-08-24T00:19:19;101347.22;;;13.20;100.00
80509;BME280;69838;52.602;13.434;2023-08-24T00:20:06;101371.03;;;13.32;100.00
80509;BME280;69838;52.602;13.434;2023-08-24T00:20:55;101364.91;;;13.27;100.00
80509;BME280;69838;52.602;13.434;2023-08-24T00:21:41;101358.13;;;13.18;100.00
80509;BME280;69838;52.602;13.434;2023-08-24T00:22:27;101362.34;;;13.24;100.00
80509;BME280;69838;52.602;13.434;2023-08-24T00:23:12;101364.28;;;13.22;100.00
80509;BME280;69838;52.602;13.434;2023-08-24T00:23:59;101367.19;;;13.17;100.00
80509;BME280;69838;52.602;13.434;2023-08-24T00:24:44;101368.75;;;13.23;100.00
80509;BME280;69838;52.602;13.434;2023-08-24T00:25:30;101374.78;;;13.28;100.00
80509;BME280;69838;52.602;13.434;2023-08-24T00:26:17;101373.06;;;13.27;100.00
80509;BME280;69838;52.602;13.434;2023-08-24T00:27:03;101372.78;;;13.33;100.00
80509;BME280;69838;52.602;13.434;2023-08-24T00:27:49;101363.69;;;13.34;100.00
80509;BME280;69838;52.602;13.434;2023-08-24T00:28:36;101363.88;;;13.29;100.00
80509;BME280;69838;52.602;13.434;2023-08-24T00:29:21;101361.34;;;13.26;100.00
80509;BME280;69838;52.602;13.434;2023-08-24T00:30:08;101369.38;;;13.28;100.00
80509;BME280;69838;52.602;13.434;2023-08-24T00:30:53;101362.22;;;13.27;100.00
80509;BME280;69838;52.602;13.434;2023-08-24T00:31:39;101359.66;;;13.24;100.00
80509;BME280;69838;52.602;13.434;2023-08-24T00:32:25;101371.03;;;13.32;100.00
80509;BME280;69838;52.602;13.434;2023-08-24T00:33:11;101356.66;;;13.30;100.00
80509;BME280;69838;52.602;13.434;2023-08-24T00:33:56;101370.34;;;13.27;100.00
80509;BME280;69838;52.602;13.434;2023-08-24T00:34:42;101364.84;;;13.28;100.00
80509;BME280;69838;52.602;13.434;2023-08-24T00:35:28;101357.66;;;13.27;100.00
80509;BME280;69838;52.602;13.434;2023-08-24T00:36:13;101369.38;;;13.28;100.00
80509;BME280;69838;52.602;13.434;2023-08-24T00:37:00;101367.41;;;13.31;100.00
80509;BME280;69838;52.602;13.434;2023-08-24T00:37:45;101369.38;;;13.28;100.00
80509;BME280;69838;52.602;13.434;2023-08-24T00:38:31;101369.53;;;13.25;100.00
80509;BME280;69838;52.602;13.434;2023-08-24T00:39:17;101369.53;;;13.25;100.00
80509;BME280;69838;52.602;13.434;2023-08-24T00:40:04;101358.84;;;13.22;100.00
80509;BME280;69838;52.602;13.434;2023-08-24T00:40:52;101364.78;;;13.30;100.00
80509;BME280;69838;52.602;13.434;2023-08-24T00:41:39;101360.63;;;13.23;100.00
80509;BME280;69838;52.602;13.434;2023-08-24T00:42:26;101365.22;;;13.21;100.00
80509;BME280;69838;52.602;13.434;2023-08-24T00:43:13;101371.59;;;13.20;100.00
80509;BME280;69838;52.602;13.434;2023-08-24T00:43:59;101366.03;;;13.23;100.00
80509;BME280;69838;52.602;13.434;2023-08-24T00:44:45;101363.94;;;13.28;99.92
80509;BME280;69838;52.602;13.434;2023-08-24T00:45:32;101368.56;;;13.26;99.67
80509;BME280;69838;52.602;13.434;2023-08-24T00:46:18;101367.72;;;13.25;99.60
80509;BME280;69838;52.602;13.434;2023-08-24T00:47:04;101366.66;;;13.28;99.93
80509;BME280;69838;52.602;13.434;2023-08-24T00:47:50;101364.84;;;13.28;100.00
80509;BME280;69838;52.602;13.434;2023-08-24T00:48:37;101368.81;;;13.21;100.00
80509;BME280;69838;52.602;13.434;2023-08-24T00:49:22;101366.31;;;13.16;100.00
80509;BME280;69838;52.602;13.434;2023-08-24T00:50:09;101367.13;;;13.18;100.00
80509;BME280;69838;52.602;13.434;2023-08-24T00:50:55;101367.50;;;13.11;100.00
80509;BME280;69838;52.602;13.434;2023-08-24T00:51:40;101363.13;;;13.08;100.00
80509;BME280;69838;52.602;13.434;2023-08-24T00:52:28;101365.84;;;13.08;100.00
80509;BME280;69838;52.602;13.434;2023-08-24T00:53:16;101356.41;;;12.98;100.00
80509;BME280;69838;52.602;13.434;2023-08-24T00:54:02;101357.19;;;13.00;100.00
80509;BME280;69838;52.602;13.434;2023-08-24T00:54:49;101356.53;;;12.95;100.00
80509;BME280;69838;52.602;13.434;2023-08-24T00:55:34;101361.81;;;12.98;100.00
80509;BME280;69838;52.602;13.434;2023-08-24T00:56:20;101365.47;;;12.97;100.00
80509;BME280;69838;52.602;13.434;2023-08-24T00:57:10;101364.75;;;12.93;100.00
80509;BME280;69838;52.602;13.434;2023-08-24T00:57:56;101356.53;;;12.95;100.00
80509;BME280;69838;52.602;13.434;2023-08-24T00:58:44;101343.38;;;12.87;100.00
80509;BME280;69838;52.602;13.434;2023-08-24T00:59:33;101359.13;;;12.98;100.00
80509;BME280;69838;52.602;13.434;2023-08-24T01:00:19;101360.22;;;12.94;100.00
80509;BME280;69838;52.602;13.434;2023-08-24T01:01:05;101356.69;;;12.92;100.00
80509;BME280;69838;52.602;13.434;2023-08-24T01:01:51;101355.69;;;12.94;100.00
80509;BME280;69838;52.602;13.434;2023-08-24T01:02:37;101348.47;;;12.93;100.00
80509;BME280;69838;52.602;13.434;2023-08-24T01:03:23;101355.81;;;12.91;100.00
80509;BME280;69838;52.602;13.434;2023-08-24T01:04:10;101349.53;;;12.91;100.00
80509;BME280;69838;52.602;13.434;2023-08-24T01:04:56;101348.56;;;12.92;100.00
80509;BME280;69838;52.602;13.434;2023-08-24T01:05:42;101353.19;;;12.90;100.00
80509;BME280;69838;52.602;13.434;2023-08-24T01:06:29;101347.75;;;12.90;100.00
80509;BME280;69838;52.602;13.434;2023-08-24T01:07:15;101341.41;;;12.91;100.00
80509;BME280;69838;52.602;13.434;2023-08-24T01:08:02;101344.97;;;13.10;100.00
80509;BME280;69838;52.602;13.434;2023-08-24T01:08:48;101343.53;;;13.21;100.00
80509;BME280;69838;52.602;13.434;2023-08-24T01:09:34;101349.59;;;13.26;100.00
80509;BME280;69838;52.602;13.434;2023-08-24T01:10:19;101344.91;;;13.29;100.00
80509;BME280;69838;52.602;13.434;2023-08-24T01:11:10;101346.31;;;13.38;100.00
80509;BME280;69838;52.602;13.434;2023-08-24T01:12:00;101349.34;;;13.49;100.00
80509;BME280;69838;52.602;13.434;2023-08-24T01:12:59;101343.91;;;13.49;100.00
80509;BME280;69838;52.602;13.434;2023-08-24T01:13:55;101345.47;;;13.55;100.00
80509;BME280;69838;52.602;13.434;2023-08-24T01:14:49;101352.47;;;13.59;100.00
80509;BME280;69838;52.602;13.434;2023-08-24T01:15:38;101354.78;;;13.67;100.00
80509;BME280;69838;52.602;13.434;2023-08-24T01:16:29;101347.13;;;13.75;99.95
80509;BME280;69838;52.602;13.434;2023-08-24T01:17:20;101359.72;;;13.76;99.61
80509;BME280;69838;52.602;13.434;2023-08-24T01:18:11;101351.66;;;13.74;99.69
80509;BME280;69838;52.602;13.434;2023-08-24T01:19:00;101350.78;;;13.74;99.72
80509;BME280;69838;52.602;13.434;2023-08-24T01:19:48;101350.94;;;13.71;99.82
80509;BME280;69838;52.602;13.434;2023-08-24T01:20:34;101348.88;;;13.76;99.87
80509;BME280;69838;52.602;13.434;2023-08-24T01:21:21;101345.91;;;13.81;99.70
80509;BME280;69838;52.602;13.434;2023-08-24T01:22:17;101349.50;;;13.81;99.78
80509;BME280;69838;52.602;13.434;2023-08-24T01:23:18;101351.91;;;13.87;99.89
80509;BME280;69838;52.602;13.434;2023-08-24T01:24:12;101348.22;;;13.88;99.81
80509;BME280;69838;52.602;13.434;2023-08-24T01:25:05;101348.22;;;13.88;99.85
80509;BME280;69838;52.602;13.434;2023-08-24T01:25:52;101348.22;;;13.88;99.79
80509;BME280;69838;52.602;13.434;2023-08-24T01:26:41;101347.28;;;13.89;99.39
80509;BME280;69838;52.602;13.434;2023-08-24T01:27:27;101352.06;;;13.84;99.39
80509;BME280;69838;52.602;13.434;2023-08-24T01:28:14;101349.28;;;13.86;99.58
80509;BME280;69838;52.602;13.434;2023-08-24T01:29:04;101350.16;;;13.86;99.83
80509;BME280;69838;52.602;13.434;2023-08-24T01:29:49;101345.78;;;13.84;99.68
80509;BME280;69838;52.602;13.434;2023-08-24T01:30:37;101355.72;;;13.83;99.84
80509;BME280;69838;52.602;13.434;2023-08-24T01:31:24;101352.22;;;13.81;100.00
80509;BME280;69838;52.602;13.434;2023-08-24T01:32:10;101349.75;;;13.77;100.00
80509;BME280;69838;52.602;13.434;2023-08-24T01:32:56;101343.63;;;13.73;100.00
80509;BME280;69838;52.602;13.434;2023-08-24T01:33:43;101353.09;;;13.82;100.00
80509;BME280;69838;52.602;13.434;2023-08-24T01:34:28;101357.50;;;13.84;100.00
80509;BME280;69838;52.602;13.434;2023-08-24T01:35:14;101353.66;;;13.88;100.00
80509;BME280;69838;52.602;13.434;2023-08-24T01:35:59;101347.19;;;13.91;100.00
80509;BME280;69838;52.602;13.434;2023-08-24T01:36:45;101347.00;;;13.94;100.00
80509;BME280;69838;52.602;13.434;2023-08-24T01:37:31;101350.38;;;13.99;99.96
80509;BME280;69838;52.602;13.434;2023-08-24T01:38:17;101355.56;;;14.04;99.33
80509;BME280;69838;52.602;13.434;2023-08-24T01:39:07;101349.78;;;14.10;99.74
80509;BME280;69838;52.602;13.434;2023-08-24T01:40:01;101349.47;;;14.16;99.05
80509;BME280;69838;52.602;13.434;2023-08-24T01:40:54;101355.69;;;14.18;99.02
80509;BME280;69838;52.602;13.434;2023-08-24T01:41:46;101354.72;;;14.19;99.66
80509;BME280;69838;52.602;13.434;2023-08-24T01:42:35;101348.34;;;14.20;99.33
80509;BME280;69838;52.602;13.434;2023-08-24T01:43:30;101347.13;;;14.26;98.87
80509;BME280;69838;52.602;13.434;2023-08-24T01:44:20;101355.97;;;14.29;98.55
80509;BME280;69838;52.602;13.434;2023-08-24T01:45:07;101347.84;;;14.29;98.88
80509;BME280;69838;52.602;13.434;2023-08-24T01:45:55;101347.69;;;14.32;98.68
80509;BME280;69838;52.602;13.434;2023-08-24T01:46:42;101352.84;;;14.37;98.66
80509;BME280;69838;52.602;13.434;2023-08-24T01:47:28;101352.06;;;14.35;99.12
80509;BME280;69838;52.602;13.434;2023-08-24T01:48:16;101349.25;;;14.37;99.30
80509;BME280;69838;52.602;13.434;2023-08-24T01:49:02;101350.31;;;14.34;99.40
80509;BME280;69838;52.602;13.434;2023-08-24T01:49:49;101345.75;;;14.35;99.22
80509;BME280;69838;52.602;13.434;2023-08-24T01:50:36;101348.47;;;14.35;99.49
80509;BME280;69838;52.602;13.434;2023-08-24T01:51:22;101351.19;;;14.35;99.27
80509;BME280;69838;52.602;13.434;2023-08-24T01:52:09;101341.09;;;14.37;99.40
80509;BME280;69838;52.602;13.434;2023-08-24T01:52:56;101348.31;;;14.38;99.86
80509;BME280;69838;52.602;13.434;2023-08-24T01:53:42;101346.53;;;14.37;99.73
80509;BME280;69838;52.602;13.434;2023-08-24T01:54:28;101352.94;;;14.36;99.95
80509;BME280;69838;52.602;13.434;2023-08-24T01:55:17;101357.25;;;14.40;99.58
80509;BME280;69838;52.602;13.434;2023-08-24T01:56:08;101349.09;;;14.40;99.58
80509;BME280;69838;52.602;13.434;2023-08-24T01:56:54;101351.72;;;14.41;99.82
80509;BME280;69838;52.602;13.434;2023-08-24T01:57:41;101331.22;;;14.36;99.69
80509;BME280;69838;52.602;13.434;2023-08-24T01:58:26;101343.31;;;14.46;99.50
80509;BME280;69838;52.602;13.434;2023-08-24T01:59:11;101345.88;;;14.49;99.58
80509;BME280;69838;52.602;13.434;2023-08-24T01:59:58;101348.59;;;14.49;99.41
80509;BME280;69838;52.602;13.434;2023-08-24T02:00:43;101339.72;;;14.45;99.43
80509;BME280;69838;52.602;13.434;2023-08-24T02:01:28;101341.38;;;14.48;99.13
80509;BME280;69838;52.602;13.434;2023-08-24T02:02:15;101347.63;;;14.50;99.01
80509;BME280;69838;52.602;13.434;2023-08-24T02:03:00;101343.16;;;14.49;98.96
80509;BME280;69838;52.602;13.434;2023-08-24T02:03:45;101341.38;;;14.48;98.57
80509;BME280;69838;52.602;13.434;2023-08-24T02:04:32;101347.72;;;14.48;98.65
80509;BME280;69838;52.602;13.434;2023-08-24T02:05:17;101344.00;;;14.49;98.87
80509;BME280;69838;52.602;13.434;2023-08-24T02:06:04;101347.53;;;14.51;99.01
80509;BME280;69838;52.602;13.434;2023-08-24T02:06:51;101343.94;;;14.51;99.06
80509;BME280;69838;52.602;13.434;2023-08-24T02:07:39;101344.00;;;14.49;99.07
80509;BME280;69838;52.602;13.434;2023-08-24T02:08:25;101335.78;;;14.51;99.13
80509;BME280;69838;52.602;13.434;2023-08-24T02:09:11;101339.66;;;14.47;99.19
80509;BME280;69838;52.602;13.434;2023-08-24T02:09:57;101341.31;;;14.49;99.56
80509;BME280;69838;52.602;13.434;2023-08-24T02:10:42;101339.47;;;14.50;99.50
80509;BME280;69838;52.602;13.434;2023-08-24T02:11:28;101343.94;;;14.51;99.57
80509;BME280;69838;52.602;13.434;2023-08-24T02:12:15;101332.53;;;14.44;99.37
80509;BME280;69838;52.602;13.434;2023-08-24T02:13:01;101350.34;;;14.50;99.46
80509;BME280;69838;52.602;13.434;2023-08-24T02:13:46;101343.16;;;14.49;99.90
80509;BME280;69838;52.602;13.434;2023-08-24T02:14:33;101344.22;;;14.46;99.94
80509;BME280;69838;52.602;13.434;2023-08-24T02:15:18;101342.38;;;14.47;99.93
80509;BME280;69838;52.602;13.434;2023-08-24T02:16:04;101341.38;;;14.48;99.88
80509;BME280;69838;52.602;13.434;2023-08-24T02:16:51;101340.59;;;14.46;99.92
80509;BME280;69838;52.602;13.434;2023-08-24T02:17:36;101337.00;;;14.45;99.97
80509;BME280;69838;52.602;13.434;2023-08-24T02:18:21;101339.72;;;14.45;100.00
80509;BME280;69838;52.602;13.434;2023-08-24T02:19:08;101332.44;;;14.46;100.00
80509;BME280;69838;52.602;13.434;2023-08-24T02:19:53;101338.59;;;14.49;100.00
80509;BME280;69838;52.602;13.434;2023-08-24T02:20:39;101340.19;;;14.54;100.00
80509;BME280;69838;52.602;13.434;2023-08-24T02:21:25;101334.56;;;14.57;99.89
80509;BME280;69838;52.602;13.434;2023-08-24T02:22:10;101339.78;;;14.61;99.42
80509;BME280;69838;52.602;13.434;2023-08-24T02:22:56;101344.94;;;14.66;99.26
80509;BME280;69838;52.602;13.434;2023-08-24T02:23:42;101334.78;;;14.69;99.42
80509;BME280;69838;52.602;13.434;2023-08-24T02:24:27;101336.53;;;14.70;98.90
80509;BME280;69838;52.602;13.434;2023-08-24T02:25:13;101333.56;;;14.75;99.02
80509;BME280;69838;52.602;13.434;2023-08-24T02:25:59;101332.88;;;14.72;99.51
80509;BME280;69838;52.602;13.434;2023-08-24T02:26:44;101331.09;;;14.70;99.49
80509;BME280;69838;52.602;13.434;2023-08-24T02:27:31;101330.94;;;14.74;99.61
80509;BME280;69838;52.602;13.434;2023-08-24T02:28:17;101333.75;;;14.72;99.24
80509;BME280;69838;52.602;13.434;2023-08-24T02:29:03;101336.38;;;14.74;99.66
80509;BME280;69838;52.602;13.434;2023-08-24T02:29:49;101329.97;;;14.75;99.60
80509;BME280;69838;52.602;13.434;2023-08-24T02:30:37;101335.16;;;14.79;99.21
80509;BME280;69838;52.602;13.434;2023-08-24T02:31:22;101339.53;;;14.82;99.18
80509;BME280;69838;52.602;13.434;2023-08-24T02:32:07;101340.50;;;14.81;99.54
80509;BME280;69838;52.602;13.434;2023-08-24T02:32:54;101336.00;;;14.80;99.53
80509;BME280;69838;52.602;13.434;2023-08-24T02:33:39;101336.00;;;14.80;99.79
80509;BME280;69838;52.602;13.434;2023-08-24T02:34:24;101336.88;;;14.80;99.57
80509;BME280;69838;52.602;13.434;2023-08-24T02:35:11;101343.03;;;14.84;99.52
80509;BME280;69838;52.602;13.434;2023-08-24T02:35:57;101339.53;;;14.82;98.84
80509;BME280;69838;52.602;13.434;2023-08-24T02:36:42;101344.78;;;14.85;98.90
80509;BME280;69838;52.602;13.434;2023-08-24T02:37:28;101342.69;;;14.90;98.10
80509;BME280;69838;52.602;13.434;2023-08-24T02:38:14;101346.81;;;14.97;98.40
80509;BME280;69838;52.602;13.434;2023-08-24T02:38:59;101342.00;;;15.02;98.03
80509;BME280;69838;52.602;13.434;2023-08-24T02:39:46;101338.47;;;15.00;97.08
80509;BME280;69838;52.602;13.434;2023-08-24T02:40:31;101333.06;;;15.00;98.42
80509;BME280;69838;52.602;13.434;2023-08-24T02:41:16;101336.47;;;15.04;97.51
80509;BME280;69838;52.602;13.434;2023-08-24T02:42:03;101340.22;;;15.01;96.65
80509;BME280;69838;52.602;13.434;2023-08-24T02:42:50;101334.63;;;15.04;98.06
80509;BME280;69838;52.602;13.434;2023-08-24T02:43:35;101343.56;;;15.06;97.93
80509;BME280;69838;52.602;13.434;2023-08-24T02:44:21;101339.69;;;15.11;97.70
80509;BME280;69838;52.602;13.434;2023-08-24T02:45:07;101348.75;;;15.11;97.83
80509;BME280;69838;52.602;13.434;2023-08-24T02:45:53;101344.25;;;15.10;97.65
80509;BME280;69838;52.602;13.434;2023-08-24T02:46:39;101343.38;;;15.10;97.27
80509;BME280;69838;52.602;13.434;2023-08-24T02:47:24;101341.63;;;15.08;97.85
80509;BME280;69838;52.602;13.434;2023-08-24T02:48:11;101341.78;;;15.05;97.83
80509;BME280;69838;52.602;13.434;2023-08-24T02:48:56;101339.19;;;15.04;98.70
80509;BME280;69838;52.602;13.434;2023-08-24T02:49:41;101340.06;;;15.04;98.70
80509;BME280;69838;52.602;13.434;2023-08-24T02:50:28;101334.63;;;15.04;98.67
80509;BME280;69838;52.602;13.434;2023-08-24T02:51:13;101331.97;;;15.03;98.68
80509;BME280;69838;52.602;13.434;2023-08-24T02:52:00;101331.97;;;15.03;98.92
80509;BME280;69838;52.602;13.434;2023-08-24T02:52:45;101332.84;;;15.03;99.31
80509;BME280;69838;52.602;13.434;2023-08-24T02:53:31;101327.78;;;14.97;98.33
80509;BME280;69838;52.602;13.434;2023-08-24T02:54:17;101323.91;;;15.01;97.64
80509;BME280;69838;52.602;13.434;2023-08-24T02:55:04;101329.34;;;15.01;98.15
80509;BME280;69838;52.602;13.434;2023-08-24T02:55:49;101334.44;;;15.07;97.18
80509;BME280;69838;52.602;13.434;2023-08-24T02:56:35;101334.44;;;15.07;98.26
80509;BME280;69838;52.602;13.434;2023-08-24T02:57:21;101331.59;;;15.09;98.12
80509;BME280;69838;52.602;13.434;2023-08-24T02:58:08;101327.16;;;15.08;98.15
80509;BME280;69838;52.602;13.434;2023-08-24T02:58:54;101337.16;;;15.07;97.77
80509;BME280;69838;52.602;13.434;2023-08-24T02:59:39;101323.56;;;15.07;97.86
80509;BME280;69838;52.602;13.434;2023-08-24T03:00:28;101333.22;;;15.13;98.50
80509;BME280;69838;52.602;13.434;2023-08-24T03:01:14;101323.38;;;15.11;97.86
80509;BME280;69838;52.602;13.434;2023-08-24T03:01:59;101332.31;;;15.13;98.56
80509;BME280;69838;52.602;13.434;2023-08-24T03:02:45;101322.50;;;15.10;97.82
80509;BME280;69838;52.602;13.434;2023-08-24T03:03:31;101324.25;;;15.11;98.03
80509;BME280;69838;52.602;13.434;2023-08-24T03:04:16;101328.63;;;15.14;97.56
80509;BME280;69838;52.602;13.434;2023-08-24T03:05:03;101324.25;;;15.11;97.99
80509;BME280;69838;52.602;13.434;2023-08-24T03:05:53;101328.81;;;15.11;97.82
80509;BME280;69838;52.602;13.434;2023-08-24T03:06:39;101328.63;;;15.14;98.17
80509;BME280;69838;52.602;13.434;2023-08-24T03:07:25;101324.97;;;15.15;97.63
80509;BME280;69838;52.602;13.434;2023-08-24T03:08:10;101323.97;;;15.16;97.79
80509;BME280;69838;52.602;13.434;2023-08-24T03:08:56;101316.81;;;15.15;97.98
80509;BME280;69838;52.602;13.434;2023-08-24T03:09:42;101325.75;;;15.17;97.96
80509;BME280;69838;52.602;13.434;2023-08-24T03:10:28;101320.31;;;15.17;98.21
80509;BME280;69838;52.602;13.434;2023-08-24T03:11:13;101313.88;;;15.18;97.62
80509;BME280;69838;52.602;13.434;2023-08-24T03:11:59;101329.06;;;15.22;97.48
80509;BME280;69838;52.602;13.434;2023-08-24T03:12:45;101328.09;;;15.23;97.26
80509;BME280;69838;52.602;13.434;2023-08-24T03:13:33;101325.44;;;15.21;97.28
80509;BME280;69838;52.602;13.434;2023-08-24T03:14:19;101328.78;;;15.26;96.66
80509;BME280;69838;52.602;13.434;2023-08-24T03:15:06;101331.25;;;15.31;96.38
80509;BME280;69838;52.602;13.434;2023-08-24T03:15:51;101323.16;;;15.30;96.62
80509;BME280;69838;52.602;13.434;2023-08-24T03:16:38;101322.78;;;15.36;96.98
80509;BME280;69838;52.602;13.434;2023-08-24T03:17:23;101325.44;;;15.37;96.74
80509;BME280;69838;52.602;13.434;2023-08-24T03:18:11;101327.19;;;15.38;97.35
80509;BME280;69838;52.602;13.434;2023-08-24T03:18:56;101335.34;;;15.38;96.99
80509;BME280;69838;52.602;13.434;2023-08-24T03:19:41;101326.66;;;15.32;97.55
80509;BME280;69838;52.602;13.434;2023-08-24T03:20:28;101331.25;;;15.31;97.76
80509;BME280;69838;52.602;13.434;2023-08-24T03:21:13;101325.97;;;15.28;98.13
80509;BME280;69838;52.602;13.434;2023-08-24T03:21:59;101326.94;;;15.27;97.99
80509;BME280;69838;52.602;13.434;2023-08-24T03:22:45;101324.41;;;15.24;98.21
80509;BME280;69838;52.602;13.434;2023-08-24T03:23:30;101328.09;;;15.23;98.09
80509;BME280;69838;52.602;13.434;2023-08-24T03:24:15;101318.78;;;15.27;97.27
80509;BME280;69838;52.602;13.434;2023-08-24T03:25:02;101324.91;;;15.31;97.49
80509;BME280;69838;52.602;13.434;2023-08-24T03:25:48;101321.16;;;15.33;97.59
80509;BME280;69838;52.602;13.434;2023-08-24T03:26:33;101332.19;;;15.30;96.66
80509;BME280;69838;52.602;13.434;2023-08-24T03:27:19;101325.97;;;15.28;97.55
80509;BME280;69838;52.602;13.434;2023-08-24T03:28:05;101322.31;;;15.29;97.53
80509;BME280;69838;52.602;13.434;2023-08-24T03:28:52;101326.84;;;15.28;97.14
80509;BME280;69838;52.602;13.434;2023-08-24T03:29:39;101321.31;;;15.30;97.12
80509;BME280;69838;52.602;13.434;2023-08-24T03:30:24;101320.16;;;15.34;97.21
80509;BME280;69838;52.602;13.434;2023-08-24T03:31:10;101320.16;;;15.34;96.77
80509;BME280;69838;52.602;13.434;2023-08-24T03:31:56;101319.91;;;15.39;96.62
80509;BME280;69838;52.602;13.434;2023-08-24T03:32:41;101316.88;;;15.29;96.81
80509;BME280;69838;52.602;13.434;2023-08-24T03:33:27;101321.06;;;15.35;97.51
80509;BME280;69838;52.602;13.434;2023-08-24T03:34:13;101331.03;;;15.34;97.82
80509;BME280;69838;52.602;13.434;2023-08-24T03:34:59;101328.44;;;15.33;98.09
80509;BME280;69838;52.602;13.434;2023-08-24T03:35:44;101323.16;;;15.30;98.11
80509;BME280;69838;52.602;13.434;2023-08-24T03:36:31;101324.03;;;15.30;98.32
80509;BME280;69838;52.602;13.434;2023-08-24T03:37:16;101333.19;;;15.29;98.43
80509;BME280;69838;52.602;13.434;2023-08-24T03:38:03;101318.78;;;15.27;98.61
80509;BME280;69838;52.602;13.434;2023-08-24T03:38:49;101319.75;;;15.26;98.55
80509;BME280;69838;52.602;13.434;2023-08-24T03:39:36;101315.34;;;15.23;98.95
80509;BME280;69838;52.602;13.434;2023-08-24T03:40:21;101315.28;;;15.25;98.91
80509;BME280;69838;52.602;13.434;2023-08-24T03:41:07;101315.19;;;15.26;98.69
80509;BME280;69838;52.602;13.434;2023-08-24T03:41:53;101318.44;;;15.33;98.33
80509;BME280;69838;52.602;13.434;2023-08-24T03:42:39;101319.22;;;15.35;98.25
80509;BME280;69838;52.602;13.434;2023-08-24T03:43:24;101321.75;;;15.38;97.40
80509;BME280;69838;52.602;13.434;2023-08-24T03:44:12;101311.47;;;15.43;97.80
80509;BME280;69838;52.602;13.434;2023-08-24T03:44:59;101313.22;;;15.44;96.93
80509;BME280;69838;52.602;13.434;2023-08-24T03:45:44;101312.94;;;15.49;97.38
80509;BME280;69838;52.602;13.434;2023-08-24T03:46:30;101313.81;;;15.50;96.54
80509;BME280;69838;52.602;13.434;2023-08-24T03:47:16;101310.13;;;15.51;97.04
80509;BME280;69838;52.602;13.434;2023-08-24T03:48:01;101310.13;;;15.51;97.63
80509;BME280;69838;52.602;13.434;2023-08-24T03:48:48;101307.28;;;15.52;97.76
80509;BME280;69838;52.602;13.434;2023-08-24T03:49:33;101313.63;;;15.53;97.85
80509;BME280;69838;52.602;13.434;2023-08-24T03:50:18;101306.44;;;15.52;97.19
80509;BME280;69838;52.602;13.434;2023-08-24T03:51:05;101304.69;;;15.51;97.75
80509;BME280;69838;52.602;13.434;2023-08-24T03:51:50;101308.53;;;15.46;98.18
80509;BME280;69838;52.602;13.434;2023-08-24T03:52:35;101297.88;;;15.43;98.21
80509;BME280;69838;52.602;13.434;2023-08-24T03:53:22;101305.81;;;15.46;97.92
80509;BME280;69838;52.602;13.434;2023-08-24T03:54:07;101310.13;;;15.51;98.15
80509;BME280;69838;52.602;13.434;2023-08-24T03:54:54;101311.19;;;15.48;98.21
80509;BME280;69838;52.602;13.434;2023-08-24T03:55:39;101309.63;;;15.44;98.48
80509;BME280;69838;52.602;13.434;2023-08-24T03:56:24;101307.16;;;15.39;98.65
80509;BME280;69838;52.602;13.434;2023-08-24T03:57:11;101313.59;;;15.38;98.96
80509;BME280;69838;52.602;13.434;2023-08-24T03:57:56;101315.63;;;15.35;98.29
80509;BME280;69838;52.602;13.434;2023-08-24T03:58:42;101302.28;;;15.30;98.91
80509;BME280;69838;52.602;13.434;2023-08-24T03:59:30;101307.53;;;15.33;99.03